Tennga, Georgia
Current Conditions -  °F | °C
As of 12:15 AM on Sunday 26 Oct 2014 (Local Time) from KRZR Reporting Station
Broken Clouds Broken Clouds  
Wind Chill: 55°   Ceiling: 3800
Heat Index: 55°   Visibility: 10mi
Dew Point: 52°   Wind: 0mph
Humidity: 88%   Direction: NA
Pressure: 30.04"   Gusts: NA
Location:  34.99°N, 84.74°W
Report Text: KRZR 260415Z AUTO 00000KT 10SM BKN038 13/11 A3004 RMK
Loading
Personal Weather Stations






























Interactive Weather Map
Tropical Storm Tracking
New forecast layout! Learn more

10-Day Weather Forecast

Advertisements
Track Severe Weather on mobile